Chicago Rockford International Airport
KRFD : rendu visible

Aérodrome :











RETROUVEZ-NOUS SUR...

 
LOGIN :

S'inscrire | Disclaimer

   EN    FR    IT 

 









Légende :    VFR   VFR Marginal   IFR   IFR Intensif   IFR Très Intensif
Visi : 
Plafond : 
>= 8 km
>= 3000ft
5 à 8 km
1000 à 3000 ft
1500m à 5 km
500 à 1000 ft
800 à 1500m
200 à 500 ft
< 800m
< 200 ft
Symboles :   Orages  Brouillard  Fortes neiges  Fortes précipitations  Vent > 20 kt






- Altitude de l'aérodrome : 742 ft
- Code IATA : RFD


KRFD - Chicago Rockford International

DERNIER METAR :
  • 281254Z 18005KT 6SM BR BKN007 OVC029 21/19 A2988 RMK AO2 RAE50 CIG 006V010 SLP113 P0000 T02110194

METARs EXPIRÉS :
  • 281212Z 19005KT 8SM -RA SCT009 BKN026 OVC032 21/19 A2988 RMK AO2 P0000 T02060189 $
  • 281154Z 18006KT 8SM -RA BKN027 OVC120 21/19 A2988 RMK AO2 SLP113 P0000 60008 70009 T02060189 10222 20200 53001 $
  • 281134Z 17005KT 8SM -RA SCT016 BKN120 OVC160 21/19 A2987 RMK AO2 P0000 T02060189 $
  • 281109Z 18003KT 8SM -RA BKN016 BKN050 OVC120 20/19 A2987 RMK AO2 P0000 T02000189 $
  • 281054Z 18003KT 8SM -RA SCT016 BKN070 BKN110 OVC160 20/19 A2987 RMK AO2 RAB0955E08B45 SLP110 P0000 T02000189 $

TAF KRFD
Valide du 28 à 12h jusqu'au 29 à 12h UTC


281120Z 2812/2912 18005KT P6SM VCSH BKN010
FM281600 19008KT P6SM VCSH SCT012 BKN022
TEMPO 2817/2820 5SM -SHRA BR
FM282000 35010KT 5SM -SHRA BR SCT025 OVC035
TEMPO 2820/2823 2SM TSRA BKN025CB
FM290400 32006KT P6SM SCT020 OVC070
FIR KZAU / Amérique du Nord



MET'MAP, la Météo Aéronautique d'un coup d'oeil ! - Copyright ORBIFLY Décembre 2007 - Disclaimer

ORBIFLY MET'MAP TEAM :

Programmation & Développement : Alexandra Zaïnal
Sur une idée originale de : Baudouin d'Aumeries
Assistance à la programmation : Marc-Olivier Méhu
Soutien technique & logistique : Manuel Goepfert

Contact : metmap@orbifly.com




SOURCES & CREDITS :

   NOAA       Earth
Advisory